Time;durP1;ratioP1;P1;durP2;ratioP2;P2;SDS_P1;SDS_P2;PMS_P1;PMS_P2;Temp;Humidity;BMP_temperature;BMP_pressure;BME280_temperature;BME280_humidity;BME280_pressure;Samples;Min_cycle;Max_cycle;Signal;HPM_P1;HPM_P2
2022/06/27 00:00:47;;;;;;;1.50;0.50;;;18.40;79.40;;;;;;4997981;28;20054;-86
2022/06/27 00:03:15;;;;;;;2.13;0.80;;;18.40;79.40;;;;;;4998557;28;20043;-88
2022/06/27 00:05:42;;;;;;;1.30;0.80;;;18.40;79.30;;;;;;5006458;28;20474;-87
2022/06/27 00:08:09;;;;;;;1.45;0.45;;;18.40;79.20;;;;;;4973577;28;20509;-87
2022/06/27 00:10:36;;;;;;;0.90;0.60;;;18.40;79.10;;;;;;4990996;28;20057;-90
2022/06/27 00:13:03;;;;;;;1.50;0.50;;;18.50;79.20;;;;;;4993255;28;20047;-87
2022/06/27 00:15:31;;;;;;;1.15;0.47;;;18.40;79.10;;;;;;4993109;28;20508;-85
2022/06/27 00:17:58;;;;;;;0.95;0.40;;;18.40;79.10;;;;;;4992824;28;20057;-83
2022/06/27 00:20:25;;;;;;;1.73;0.60;;;18.40;79.10;;;;;;4996567;28;20055;-83
2022/06/27 00:22:53;;;;;;;4.00;0.80;;;18.40;79.10;;;;;;4991430;28;20148;-84
2022/06/27 00:25:23;;;;;;;2.20;0.57;;;18.40;79.10;;;;;;4975824;28;20116;-89
2022/06/27 00:27:50;;;;;;;0.93;0.50;;;18.40;79.00;;;;;;4981196;28;20071;-89
2022/06/27 00:30:18;;;;;;;2.40;0.60;;;18.40;78.90;;;;;;4979951;28;20486;-90
2022/06/27 00:32:49;;;;;;;0.90;0.50;;;18.40;79.00;;;;;;5007815;28;20065;-88
2022/06/27 00:35:19;;;;;;;1.10;0.50;;;18.40;79.00;;;;;;4995787;28;20042;-89
2022/06/27 00:37:46;;;;;;;1.65;0.50;;;18.40;79.10;;;;;;4983275;28;20431;-90
2022/06/27 00:40:16;;;;;;;0.90;0.50;;;18.40;79.20;;;;;;4986404;28;20058;-89
2022/06/27 00:42:46;;;;;;;0.80;0.40;;;18.40;79.20;;;;;;4986269;28;20065;-88
2022/06/27 00:45:14;;;;;;;0.60;0.38;;;18.40;79.20;;;;;;4996306;28;20494;-88
2022/06/27 00:47:42;;;;;;;2.53;0.45;;;18.40;79.20;;;;;;5006715;28;20056;-89
2022/06/27 00:50:09;;;;;;;1.13;0.40;;;18.40;79.20;;;;;;4952312;28;20070;-86
2022/06/27 00:52:37;;;;;;;1.35;0.40;;;18.40;79.20;;;;;;4979225;28;20054;-88
2022/06/27 00:55:06;;;;;;;0.68;0.40;;;18.40;79.20;;;;;;5002238;28;20089;-86
2022/06/27 00:57:34;;;;;;;1.15;0.45;;;18.40;79.20;;;;;;5000975;28;20507;-90
2022/06/27 01:00:04;;;;;;;1.00;0.47;;;18.40;79.30;;;;;;4986755;28;20054;-88
2022/06/27 01:02:31;;;;;;;2.45;0.52;;;18.30;79.30;;;;;;4983501;28;20050;-87
2022/06/27 01:05:00;;;;;;;1.23;0.30;;;18.30;79.30;;;;;;4985225;28;20074;-86
2022/06/27 01:07:28;;;;;;;1.00;0.50;;;18.30;79.30;;;;;;4996411;28;20053;-83
2022/06/27 01:09:57;;;;;;;1.13;0.65;;;18.30;79.30;;;;;;4994165;28;20055;-83
2022/06/27 01:12:24;;;;;;;1.42;0.55;;;18.30;79.30;;;;;;5007425;28;20089;-83
2022/06/27 01:14:54;;;;;;;1.33;0.43;;;18.30;79.30;;;;;;4992131;28;20069;-85
2022/06/27 01:17:26;;;;;;;0.73;0.40;;;18.30;79.30;;;;;;4999806;28;20594;-82
2022/06/27 01:19:55;;;;;;;1.50;0.57;;;18.30;79.40;;;;;;5005255;28;20414;-82
2022/06/27 01:22:25;;;;;;;0.80;0.40;;;18.20;79.50;;;;;;5000426;28;20184;-83
2022/06/27 01:24:55;;;;;;;;;;;18.30;79.60;;;;;;5000341;28;20038;-82
2022/06/27 01:27:22;;;;;;;2.80;0.60;;;18.20;79.70;;;;;;4996236;28;19925;-83
2022/06/27 01:29:52;;;;;;;0.75;0.40;;;18.20;79.80;;;;;;4981939;28;20046;-82
2022/06/27 01:32:20;;;;;;;1.52;0.45;;;18.20;79.70;;;;;;4966586;28;20054;-85
2022/06/27 01:34:49;;;;;;;1.25;0.40;;;18.30;79.80;;;;;;4978739;28;20046;-79
2022/06/27 01:37:16;;;;;;;1.73;0.50;;;18.20;79.90;;;;;;4993822;28;20129;-84
2022/06/27 01:39:44;;;;;;;1.23;0.50;;;18.30;80.00;;;;;;4991650;28;20047;-83
2022/06/27 01:42:11;;;;;;;1.15;0.50;;;18.20;80.00;;;;;;4980694;28;20042;-84
2022/06/27 01:44:41;;;;;;;1.20;0.40;;;18.20;80.00;;;;;;4993959;28;20057;-85
2022/06/27 01:47:11;;;;;;;1.08;0.50;;;18.30;80.10;;;;;;4975648;28;20101;-84
2022/06/27 01:49:49;;;;;;;1.63;0.50;;;18.20;80.00;;;;;;4987310;28;20097;-84
2022/06/27 01:52:17;;;;;;;1.65;0.45;;;18.20;80.00;;;;;;4979450;28;20344;-83
2022/06/27 01:54:52;;;;;;;2.83;0.50;;;18.20;80.00;;;;;;4993709;28;20398;-87
2022/06/27 01:57:23;;;;;;;3.20;0.50;;;18.20;80.80;;;;;;4993777;28;20050;-82
2022/06/27 01:59:50;;;;;;;1.63;0.52;;;18.20;80.30;;;;;;4989914;28;20506;-84
2022/06/27 02:02:19;;;;;;;1.08;0.50;;;18.20;80.40;;;;;;5005491;28;20097;-82
2022/06/27 02:04:47;;;;;;;2.42;0.57;;;18.20;80.50;;;;;;4995749;28;20049;-83
2022/06/27 02:07:17;;;;;;;1.27;0.50;;;18.20;81.10;;;;;;4997804;28;20410;-82
2022/06/27 02:09:46;;;;;;;2.03;0.47;;;18.20;80.50;;;;;;5011343;28;20058;-81
2022/06/27 02:12:19;;;;;;;1.25;0.50;;;18.20;80.60;;;;;;4992872;28;20057;-83
2022/06/27 02:14:49;;;;;;;1.00;0.50;;;18.20;80.60;;;;;;4996505;28;20042;-82
2022/06/27 02:17:20;;;;;;;1.98;0.50;;;18.20;80.70;;;;;;4995226;28;20047;-80
2022/06/27 02:19:49;;;;;;;2.25;0.60;;;18.20;80.80;;;;;;5001545;28;20560;-79
2022/06/27 02:22:16;;;;;;;1.70;0.50;;;18.20;80.80;;;;;;4990224;28;20073;-80
2022/06/27 02:24:44;;;;;;;1.92;0.80;;;18.20;80.90;;;;;;4977325;28;20049;-79
2022/06/27 02:27:26;;;;;;;1.70;0.50;;;18.20;80.80;;;;;;4988457;28;20120;-88
2022/06/27 02:29:56;;;;;;;1.30;0.70;;;18.20;80.80;;;;;;4994113;28;20042;-87
2022/06/27 02:32:50;;;;;;;1.77;0.70;;;18.20;80.80;;;;;;4982280;28;20043;-87
2022/06/27 02:35:22;;;;;;;1.10;0.70;;;18.20;81.40;;;;;;4974785;28;20520;-83
2022/06/27 02:37:50;;;;;;;1.65;0.70;;;18.30;81.00;;;;;;4994476;28;20050;-80
2022/06/27 02:40:20;;;;;;;2.17;0.63;;;18.30;81.00;;;;;;4988042;28;20052;-77
2022/06/27 02:42:52;;;;;;;2.78;0.70;;;18.20;81.00;;;;;;4999600;28;20053;-76
2022/06/27 02:45:19;;;;;;;1.23;0.60;;;18.20;81.00;;;;;;4995734;28;20058;-83
2022/06/27 02:47:53;;;;;;;1.95;1.00;;;18.20;81.00;;;;;;4970259;28;20139;-84
2022/06/27 02:50:24;;;;;;;2.15;0.80;;;18.20;81.00;;;;;;4960746;28;20053;-86
2022/06/27 02:52:59;;;;;;;2.95;0.70;;;18.20;81.10;;;;;;4995990;28;20064;-86
2022/06/27 02:55:31;;;;;;;0.90;0.40;;;18.20;81.10;;;;;;5005493;28;20085;-86
2022/06/27 02:58:26;;;;;;;1.35;0.68;;;18.20;81.00;;;;;;5008484;28;20053;-86
2022/06/27 03:00:57;;;;;;;1.67;0.75;;;18.20;81.00;;;;;;4992645;28;20046;-86
2022/06/27 03:03:25;;;;;;;2.22;0.77;;;18.20;81.10;;;;;;4980065;28;20479;-86
2022/06/27 03:06:03;;;;;;;2.92;0.70;;;18.20;81.10;;;;;;4976994;28;20475;-86
2022/06/27 03:08:46;;;;;;;1.55;0.73;;;18.20;81.10;;;;;;4992482;28;20091;-85
2022/06/27 03:11:15;;;;;;;;;;;18.20;81.10;;;;;;5010624;28;20160;-86
2022/06/27 03:13:43;;;;;;;3.40;0.70;;;18.20;81.30;;;;;;4996205;28;19968;-85
2022/06/27 03:16:11;;;;;;;1.98;0.70;;;18.10;81.40;;;;;;5003264;28;20086;-86
2022/06/27 03:18:41;;;;;;;2.65;0.70;;;18.20;81.40;;;;;;5000090;28;20049;-86
2022/06/27 03:21:27;;;;;;;2.45;0.63;;;18.10;81.40;;;;;;4974385;28;20088;-86
2022/06/27 03:23:57;;;;;;;1.70;0.70;;;18.10;81.40;;;;;;4993387;28;20096;-86
2022/06/27 03:26:24;;;;;;;1.48;0.70;;;18.10;81.40;;;;;;4999531;28;20056;-78
2022/06/27 03:28:51;;;;;;;2.28;1.02;;;18.10;81.40;;;;;;4995382;28;20479;-78
2022/06/27 03:31:22;;;;;;;1.98;0.90;;;18.20;81.50;;;;;;5001169;28;20050;-78
2022/06/27 03:33:54;;;;;;;2.22;0.90;;;18.20;82.20;;;;;;4990482;28;20042;-78
2022/06/27 03:36:27;;;;;;;1.73;0.80;;;18.10;81.50;;;;;;5001295;28;20050;-77
2022/06/27 03:38:54;;;;;;;2.42;1.00;;;18.20;81.50;;;;;;4982126;28;20085;-78
2022/06/27 03:41:21;;;;;;;2.13;1.05;;;18.20;81.50;;;;;;4978025;28;20043;-78
2022/06/27 03:43:50;;;;;;;2.33;1.20;;;18.10;81.50;;;;;;5007997;28;20046;-78
2022/06/27 03:46:17;;;;;;;2.00;1.05;;;18.10;81.60;;;;;;4981276;28;20506;-78
2022/06/27 03:51:52;;;;;;;2.17;1.08;;;18.10;81.60;;;;;;4989909;28;20070;-78
2022/06/27 03:54:20;;;;;;;2.40;1.10;;;18.20;81.70;;;;;;5002668;28;20594;-79
2022/06/27 03:56:49;;;;;;;3.58;1.23;;;18.10;81.60;;;;;;4990594;28;20065;-78
2022/06/27 03:59:16;;;;;;;3.67;1.20;;;18.10;81.80;;;;;;4991692;28;20034;-79
2022/06/27 04:01:43;;;;;;;4.38;1.15;;;18.10;81.90;;;;;;4977586;28;20046;-78
2022/06/27 04:04:11;;;;;;;2.75;1.10;;;18.10;82.60;;;;;;4978795;28;20084;-78
2022/06/27 04:06:42;;;;;;;1.95;1.00;;;18.00;82.00;;;;;;4982065;28;20486;-78
2022/06/27 04:09:11;;;;;;;2.20;1.02;;;18.00;82.10;;;;;;4988976;28;20065;-79
2022/06/27 04:11:38;;;;;;;3.00;1.25;;;18.00;82.10;;;;;;4994291;28;20046;-78
2022/06/27 04:14:10;;;;;;;1.55;1.05;;;18.00;82.10;;;;;;4974717;28;20055;-78
2022/06/27 04:16:42;;;;;;;1.88;0.95;;;18.00;82.10;;;;;;4988488;28;20047;-78
2022/06/27 04:19:30;;;;;;;1.73;0.98;;;18.10;82.10;;;;;;4983955;28;20050;-79
2022/06/27 04:22:03;;;;;;;1.95;0.90;;;18.10;82.10;;;;;;4985318;28;20093;-78
2022/06/27 04:24:49;;;;;;;2.17;1.08;;;18.20;82.10;;;;;;5005641;28;20182;-79
2022/06/27 04:27:23;;;;;;;4.30;1.23;;;18.20;82.00;;;;;;4987194;28;20053;-78
2022/06/27 04:29:50;;;;;;;3.55;1.30;;;18.20;81.90;;;;;;4980121;28;20719;-79
2022/06/27 04:32:18;;;;;;;3.78;1.50;;;18.20;82.00;;;;;;4978752;28;20145;-79
2022/06/27 04:34:46;;;;;;;2.15;1.30;;;18.20;82.10;;;;;;4997321;28;20042;-79
2022/06/27 04:37:13;;;;;;;5.00;1.52;;;18.30;82.20;;;;;;5014393;28;20050;-79
2022/06/27 04:40:08;;;;;;;3.25;1.52;;;18.30;82.20;;;;;;4988242;28;20133;-78
2022/06/27 04:42:35;;;;;;;4.18;1.80;;;18.30;82.20;;;;;;4987038;28;20125;-79
2022/06/27 04:45:03;;;;;;;2.72;1.15;;;18.40;82.20;;;;;;4998795;28;20050;-78
2022/06/27 04:47:32;;;;;;;3.20;1.17;;;18.40;82.20;;;;;;5000773;28;20047;-79
2022/06/27 04:50:08;;;;;;;3.50;1.25;;;18.40;82.10;;;;;;4991394;28;20482;-79
2022/06/27 04:52:38;;;;;;;2.60;1.38;;;18.50;82.10;;;;;;4985136;28;20116;-79
2022/06/27 04:55:08;;;;;;;2.72;1.52;;;18.60;82.10;;;;;;4995406;28;20141;-79
2022/06/27 04:57:37;;;;;;;2.63;1.23;;;18.60;82.00;;;;;;4994506;28;20148;-79
2022/06/27 05:00:08;;;;;;;2.55;1.15;;;18.70;81.80;;;;;;4990989;28;20580;-79
2022/06/27 05:02:58;;;;;;;2.40;1.58;;;18.80;81.80;;;;;;5002129;28;20403;-79
2022/06/27 05:05:27;;;;;;;3.85;1.60;;;18.80;81.80;;;;;;4994583;28;20043;-78
2022/06/27 05:07:57;;;;;;;3.45;1.70;;;18.80;81.90;;;;;;4991506;28;20047;-78
2022/06/27 05:10:28;;;;;;;4.07;2.00;;;18.90;82.00;;;;;;4997658;28;20136;-78
2022/06/27 05:12:55;;;;;;;2.80;1.60;;;18.90;82.00;;;;;;4978930;28;20050;-79
2022/06/27 05:15:22;;;;;;;3.55;2.17;;;18.90;81.90;;;;;;4979367;28;20041;-86
2022/06/27 05:17:49;;;;;;;3.38;2.05;;;19.00;81.90;;;;;;4991503;28;20111;-86
2022/06/27 05:20:17;;;;;;;3.25;1.90;;;19.00;81.80;;;;;;4995373;28;20112;-87
2022/06/27 05:22:46;;;;;;;3.10;1.95;;;19.10;81.80;;;;;;4997727;28;20046;-87
2022/06/27 05:25:15;;;;;;;4.65;2.42;;;19.10;81.70;;;;;;4984054;28;20042;-79
2022/06/27 05:27:42;;;;;;;3.42;1.75;;;19.10;81.70;;;;;;4993509;28;20104;-79
2022/06/27 05:30:10;;;;;;;3.03;1.90;;;19.10;81.80;;;;;;4988997;28;20096;-79
2022/06/27 05:32:38;;;;;;;4.32;2.33;;;19.10;81.80;;;;;;5005082;28;20044;-79
2022/06/27 05:35:08;;;;;;;3.90;2.60;;;19.10;82.50;;;;;;4996752;28;20050;-79
2022/06/27 05:37:38;;;;;;;4.40;2.28;;;19.10;81.90;;;;;;4999696;28;20456;-79
2022/06/27 05:40:08;;;;;;;3.33;2.17;;;19.10;82.00;;;;;;4984325;28;20531;-79
2022/06/27 05:42:35;;;;;;;3.15;1.75;;;19.00;82.10;;;;;;4984256;28;20050;-79
2022/06/27 05:45:03;;;;;;;3.38;1.80;;;19.00;82.20;;;;;;5016323;28;20129;-79
2022/06/27 05:47:36;;;;;;;3.65;2.10;;;19.00;82.20;;;;;;4980774;28;20101;-86
2022/06/27 05:50:13;;;;;;;4.20;2.45;;;18.90;82.20;;;;;;4988939;28;20049;-86
2022/06/27 05:52:41;;;;;;;4.30;2.35;;;18.90;82.30;;;;;;4997919;28;20044;-86
2022/06/27 05:55:08;;;;;;;4.65;2.60;;;18.90;82.30;;;;;;4996476;28;20068;-86
2022/06/27 05:57:35;;;;;;;4.38;2.20;;;18.90;82.30;;;;;;5010606;28;20050;-86
2022/06/27 06:00:05;;;;;;;5.18;1.90;;;18.90;82.30;;;;;;4994547;28;20066;-87
2022/06/27 06:02:39;;;;;;;4.00;2.25;;;19.00;82.30;;;;;;5000413;28;20059;-87
2022/06/27 06:05:12;;;;;;;2.92;2.17;;;18.90;82.30;;;;;;5005675;28;20053;-86
2022/06/27 06:07:42;;;;;;;5.30;2.17;;;19.00;82.30;;;;;;4990826;28;20058;-86
2022/06/27 06:10:10;;;;;;;3.22;1.58;;;19.10;82.20;;;;;;4995338;28;20050;-87
2022/06/27 06:12:37;;;;;;;3.72;1.85;;;19.20;82.00;;;;;;4982205;28;20045;-87
2022/06/27 06:15:08;;;;;;;3.20;1.77;;;19.30;81.80;;;;;;4993959;28;20046;-86
2022/06/27 06:17:36;;;;;;;3.20;1.67;;;19.40;81.60;;;;;;4990852;28;20070;-86
2022/06/27 06:20:05;;;;;;;3.72;2.03;;;19.50;81.30;;;;;;4993798;28;20050;-86
2022/06/27 06:22:32;;;;;;;2.78;1.40;;;19.60;81.00;;;;;;5010970;28;20490;-87
2022/06/27 06:25:00;;;;;;;3.25;2.03;;;19.60;80.80;;;;;;5014562;28;20038;-88
2022/06/27 06:27:29;;;;;;;2.35;1.42;;;19.70;80.70;;;;;;4992294;28;20111;-86
2022/06/27 06:29:56;;;;;;;4.22;1.90;;;19.70;80.60;;;;;;4993909;28;20043;-88
2022/06/27 06:32:42;;;;;;;3.97;2.00;;;19.70;81.20;;;;;;4988618;28;20105;-88
2022/06/27 06:35:09;;;;;;;3.70;2.03;;;19.70;80.60;;;;;;4991670;28;20042;-88
2022/06/27 06:37:38;;;;;;;2.88;1.70;;;19.60;80.50;;;;;;4976443;28;20487;-87
2022/06/27 06:40:07;;;;;;;3.83;1.77;;;19.60;80.60;;;;;;4986848;28;20125;-87
2022/06/27 06:42:35;;;;;;;2.75;1.50;;;19.50;80.70;;;;;;5001749;28;20061;-86
2022/06/27 06:45:40;;;;;;;2.72;1.45;;;19.50;80.80;;;;;;5011435;28;20088;-87
2022/06/27 06:48:17;;;;;;;3.92;1.70;;;19.40;81.00;;;;;;4997181;28;20050;-88
2022/06/27 06:50:45;;;;;;;3.55;1.88;;;19.40;81.10;;;;;;4995549;28;20046;-88
2022/06/27 06:53:12;;;;;;;3.53;1.40;;;19.40;81.10;;;;;;4996764;28;20069;-88
2022/06/27 06:55:39;;;;;;;3.20;1.33;;;19.50;81.10;;;;;;5003610;28;20046;-87
2022/06/27 06:58:06;;;;;;;4.07;2.28;;;19.50;81.10;;;;;;4995596;28;20042;-88
2022/06/27 07:00:33;;;;;;;4.55;2.40;;;19.50;81.10;;;;;;5010505;28;20067;-88
2022/06/27 07:03:03;;;;;;;3.78;1.83;;;19.50;81.20;;;;;;4978845;28;20081;-87
2022/06/27 07:05:32;;;;;;;3.35;2.00;;;19.50;81.10;;;;;;4985029;28;20521;-85
2022/06/27 07:08:02;;;;;;;3.20;1.50;;;19.60;81.20;;;;;;4992486;28;20053;-86
2022/06/27 07:10:30;;;;;;;5.70;2.17;;;19.60;81.20;;;;;;4981450;28;20111;-87
2022/06/27 07:12:57;;;;;;;3.95;2.25;;;19.70;81.20;;;;;;4978662;28;20499;-89
2022/06/27 07:15:24;;;;;;;3.45;1.92;;;19.70;81.10;;;;;;5009965;28;20431;-86
2022/06/27 07:17:56;;;;;;;3.42;2.10;;;19.80;81.10;;;;;;4989094;28;20046;-87
2022/06/27 07:20:26;;;;;;;3.85;1.90;;;19.80;81.00;;;;;;4982168;28;20051;-87
2022/06/27 07:22:53;;;;;;;3.42;1.88;;;19.90;81.00;;;;;;4984880;28;20046;-88
2022/06/27 07:25:20;;;;;;;3.58;2.10;;;19.80;80.80;;;;;;5011194;28;20053;-88
2022/06/27 07:27:49;;;;;;;3.05;1.70;;;19.80;80.80;;;;;;5010986;28;20124;-82
2022/06/27 07:30:16;;;;;;;3.33;1.65;;;19.90;80.80;;;;;;4986114;28;20055;-81
2022/06/27 07:32:46;;;;;;;4.03;1.75;;;19.90;80.80;;;;;;4993998;28;20093;-81
2022/06/27 07:35:14;;;;;;;3.10;1.70;;;20.00;80.70;;;;;;5001542;28;20410;-81
2022/06/27 07:37:49;;;;;;;4.28;2.55;;;20.00;80.50;;;;;;4989644;28;20054;-80
2022/06/27 07:40:30;;;;;;;3.13;1.95;;;20.10;80.40;;;;;;4986161;28;20437;-81
2022/06/27 07:42:57;;;;;;;4.05;1.75;;;20.10;80.20;;;;;;5001480;28;20081;-79
2022/06/27 07:45:25;;;;;;;4.68;1.98;;;20.10;80.30;;;;;;5015457;28;20114;-80
2022/06/27 07:47:54;;;;;;;2.85;1.65;;;20.10;80.20;;;;;;4993026;28;20048;-78
2022/06/27 07:50:42;;;;;;;3.97;1.80;;;20.10;80.20;;;;;;4988528;28;20474;-82
2022/06/27 07:53:12;;;;;;;4.88;2.10;;;20.10;80.30;;;;;;4987008;28;20047;-83
2022/06/27 07:56:00;;;;;;;3.33;1.83;;;20.10;80.30;;;;;;4983190;28;20061;-82
2022/06/27 07:58:35;;;;;;;2.33;1.38;;;20.10;80.10;;;;;;5014893;28;20046;-82
2022/06/27 08:01:08;;;;;;;3.95;1.77;;;20.10;80.10;;;;;;4989854;28;20145;-82
2022/06/27 08:03:40;;;;;;;3.33;1.92;;;20.20;80.00;;;;;;5010574;28;20049;-82
2022/06/27 08:06:22;;;;;;;3.92;1.85;;;20.30;79.80;;;;;;5000067;28;20078;-81
2022/06/27 08:08:55;;;;;;;2.80;1.95;;;20.40;79.60;;;;;;4985741;28;20154;-82
2022/06/27 08:11:31;;;;;;;2.97;1.95;;;20.50;79.50;;;;;;5003784;28;20042;-80
2022/06/27 08:14:03;;;;;;;2.97;1.80;;;20.60;79.20;;;;;;4990012;28;20495;-80
2022/06/27 08:16:31;;;;;;;3.00;2.00;;;20.70;79.20;;;;;;4995896;28;20226;-82
2022/06/27 08:19:00;;;;;;;2.83;1.63;;;20.80;78.80;;;;;;4978247;28;20130;-81
2022/06/27 08:21:30;;;;;;;2.67;1.77;;;20.90;78.70;;;;;;4982059;28;20057;-81
2022/06/27 08:24:01;;;;;;;2.97;1.95;;;20.90;78.50;;;;;;4997099;28;20041;-81
2022/06/27 08:26:31;;;;;;;4.00;1.95;;;21.00;78.30;;;;;;4994644;28;20080;-81
2022/06/27 08:28:58;;;;;;;2.65;1.33;;;21.00;78.00;;;;;;4995028;28;20046;-81
2022/06/27 08:31:27;;;;;;;3.38;1.40;;;21.00;77.90;;;;;;4992387;28;20042;-81
2022/06/27 08:34:03;;;;;;;2.80;1.58;;;21.00;77.70;;;;;;4986884;28;20098;-81
2022/06/27 08:36:33;;;;;;;2.40;1.50;;;21.00;77.60;;;;;;5012405;28;20039;-81
2022/06/27 08:39:07;;;;;;;2.17;1.35;;;21.00;77.70;;;;;;4985301;28;20046;-80
2022/06/27 08:41:37;;;;;;;2.90;1.73;;;21.00;77.60;;;;;;4989636;28;20080;-80
2022/06/27 08:44:06;;;;;;;2.85;1.30;;;21.20;77.70;;;;;;4994161;28;20054;-80
2022/06/27 08:46:37;;;;;;;2.95;1.60;;;21.30;77.40;;;;;;4988096;28;20077;-80
2022/06/27 08:49:05;;;;;;;2.13;1.13;;;21.50;77.10;;;;;;4987437;28;20521;-80
2022/06/27 08:51:33;;;;;;;4.20;1.60;;;21.60;76.90;;;;;;5000824;28;20081;-79
2022/06/27 08:54:17;;;;;;;2.10;1.40;;;21.60;76.30;;;;;;5004077;28;20054;-81
2022/06/27 08:56:44;;;;;;;1.95;1.05;;;21.70;75.90;;;;;;4994368;28;20095;-80
2022/06/27 08:59:11;;;;;;;2.83;1.52;;;21.80;75.80;;;;;;4978199;28;20141;-80
2022/06/27 09:01:46;;;;;;;2.60;1.52;;;21.90;75.40;;;;;;5024345;28;20124;-76
2022/06/27 09:04:13;;;;;;;3.35;1.30;;;21.90;74.90;;;;;;4999870;28;20045;-77
2022/06/27 09:06:43;;;;;;;2.70;1.40;;;21.90;74.80;;;;;;4984070;28;20141;-77
2022/06/27 09:09:13;;;;;;;3.58;1.25;;;22.00;74.40;;;;;;4994554;28;20485;-80
2022/06/27 09:11:50;;;;;;;2.03;1.00;;;21.90;74.10;;;;;;5015951;28;20104;-82
2022/06/27 09:14:31;;;;;;;3.03;1.23;;;22.00;73.80;;;;;;4978056;28;20050;-81
2022/06/27 09:17:00;;;;;;;2.17;1.00;;;21.90;73.60;;;;;;4978348;28;20043;-82
2022/06/27 09:19:49;;;;;;;2.30;0.90;;;21.90;73.80;;;;;;4991138;28;20490;-81
2022/06/27 09:22:19;;;;;;;1.08;0.75;;;22.00;73.60;;;;;;4994042;28;20046;-81
2022/06/27 09:25:05;;;;;;;2.03;1.13;;;22.00;73.70;;;;;;4994912;28;20092;-79
2022/06/27 09:27:40;;;;;;;2.67;1.02;;;22.00;73.40;;;;;;5004134;28;20093;-80
2022/06/27 09:30:20;;;;;;;1.73;1.00;;;22.10;73.40;;;;;;5017942;28;20406;-80
2022/06/27 09:32:51;;;;;;;2.38;1.33;;;22.30;73.10;;;;;;4977837;28;20047;-80
2022/06/27 09:35:25;;;;;;;1.42;0.93;;;22.40;72.90;;;;;;5003120;28;20046;-79
2022/06/27 09:37:58;;;;;;;2.03;0.98;;;22.40;72.60;;;;;;4994179;28;20050;-82
2022/06/27 09:40:27;;;;;;;3.55;0.93;;;22.50;72.50;;;;;;5006130;28;20074;-80
2022/06/27 09:43:03;;;;;;;2.72;0.90;;;22.50;72.20;;;;;;4995860;28;20051;-81
2022/06/27 09:45:31;;;;;;;1.45;0.73;;;22.50;71.80;;;;;;4984062;28;20137;-81
2022/06/27 09:48:03;;;;;;;1.08;0.70;;;22.50;71.60;;;;;;5009535;28;20056;-80
2022/06/27 09:50:33;;;;;;;2.03;0.70;;;22.50;71.60;;;;;;5006157;28;20080;-80
2022/06/27 09:53:02;;;;;;;3.15;0.90;;;22.40;71.70;;;;;;5011786;28;20397;-80
2022/06/27 09:55:30;;;;;;;1.23;0.60;;;22.40;71.50;;;;;;4987200;28;20050;-80
2022/06/27 09:57:59;;;;;;;1.92;0.65;;;22.40;71.70;;;;;;5002360;28;20483;-80
2022/06/27 10:00:26;;;;;;;2.22;0.65;;;22.30;71.60;;;;;;4976800;28;20050;-80
2022/06/27 10:02:59;;;;;;;1.13;0.60;;;22.20;71.60;;;;;;4993118;28;20046;-87
2022/06/27 10:05:27;;;;;;;1.02;0.68;;;22.30;71.80;;;;;;5003091;28;20136;-88
2022/06/27 10:07:54;;;;;;;1.40;0.77;;;22.20;71.50;;;;;;5010690;28;20038;-87
2022/06/27 10:10:21;;;;;;;4.03;0.88;;;22.20;71.30;;;;;;4978734;28;20051;-86
2022/06/27 10:12:57;;;;;;;3.30;0.90;;;22.20;71.20;;;;;;4991601;28;20045;-86
2022/06/27 10:15:26;;;;;;;2.42;0.95;;;22.40;70.80;;;;;;4992285;28;20042;-85
2022/06/27 10:17:55;;;;;;;2.58;0.93;;;22.50;70.30;;;;;;4984043;28;20046;-86
2022/06/27 10:20:34;;;;;;;1.15;0.70;;;22.60;70.00;;;;;;4985911;28;20070;-87
2022/06/27 10:23:26;;;;;;;2.30;0.80;;;22.70;70.00;;;;;;5008969;28;20050;-87
2022/06/27 10:25:56;;;;;;;1.95;0.70;;;22.70;69.90;;;;;;4997413;28;20462;-87
2022/06/27 10:28:23;;;;;;;1.88;0.80;;;22.70;70.00;;;;;;4997378;28;20077;-87
2022/06/27 10:31:00;;;;;;;2.50;1.00;;;22.60;69.80;;;;;;4997293;28;20045;-79
2022/06/27 10:33:29;;;;;;;1.80;0.93;;;22.60;69.60;;;;;;5006238;28;20474;-80
2022/06/27 10:35:59;;;;;;;2.20;1.00;;;22.50;69.80;;;;;;5004874;28;20100;-87
2022/06/27 10:38:34;;;;;;;1.92;0.60;;;22.60;69.60;;;;;;5009031;28;20034;-88
2022/06/27 10:41:30;;;;;;;1.20;0.75;;;22.80;69.30;;;;;;4994686;28;20047;-86
2022/06/27 10:43:59;;;;;;;3.35;0.90;;;23.10;68.50;;;;;;4981760;28;20402;-76
2022/06/27 10:46:39;;;;;;;2.45;0.75;;;23.20;68.20;;;;;;4991274;28;20061;-77
2022/06/27 10:49:18;;;;;;;2.35;0.93;;;23.50;67.80;;;;;;4978184;28;20049;-82
2022/06/27 10:52:10;;;;;;;2.60;1.13;;;23.50;67.20;;;;;;4980464;28;20058;-81
2022/06/27 10:54:38;;;;;;;2.75;1.20;;;23.50;67.10;;;;;;5007978;28;20145;-77
2022/06/27 10:57:05;;;;;;;3.80;1.10;;;23.50;66.80;;;;;;4997142;28;20118;-76
2022/06/27 10:59:38;;;;;;;1.83;1.10;;;23.40;66.40;;;;;;5008453;28;20047;-78
2022/06/27 11:02:09;;;;;;;2.05;0.85;;;23.40;66.50;;;;;;4982260;28;20042;-77
2022/06/27 11:04:38;;;;;;;1.48;0.77;;;23.40;66.60;;;;;;4994391;28;20509;-78
2022/06/27 11:07:12;;;;;;;4.03;1.23;;;23.40;66.80;;;;;;4994700;28;20050;-76
2022/06/27 11:09:41;;;;;;;1.90;1.05;;;23.50;66.40;;;;;;4984801;28;20418;-77
2022/06/27 11:12:10;;;;;;;1.27;0.80;;;23.60;66.30;;;;;;4986012;28;20054;-76
2022/06/27 11:14:47;;;;;;;1.25;0.70;;;23.70;65.80;;;;;;4990459;28;20041;-78
2022/06/27 11:17:38;;;;;;;1.92;0.80;;;23.90;65.10;;;;;;5002032;28;20071;-76
2022/06/27 11:20:09;;;;;;;2.38;0.90;;;24.10;64.30;;;;;;5005853;28;20039;-77
2022/06/27 11:23:00;;;;;;;1.23;0.60;;;24.20;64.10;;;;;;5020228;28;20052;-79
2022/06/27 11:25:29;;;;;;;1.17;0.70;;;24.30;64.20;;;;;;5001508;28;20054;-80
2022/06/27 11:33:36;;;;;;;1.52;0.70;;;24.40;63.90;;;;;;4991483;28;20046;-80
2022/06/27 11:36:04;;;;;;;1.98;0.85;;;24.30;63.60;;;;;;4984963;28;20041;-80
2022/06/27 11:38:51;;;;;;;1.85;0.82;;;24.20;63.50;;;;;;4998972;28;20114;-80
2022/06/27 11:41:32;;;;;;;1.95;1.00;;;24.00;63.50;;;;;;4991792;28;20041;-81
2022/06/27 11:44:03;;;;;;;1.45;0.70;;;23.70;63.90;;;;;;4990906;28;20042;-81
2022/06/27 11:46:37;;;;;;;1.50;0.70;;;23.50;64.20;;;;;;5008485;28;20046;-81
2022/06/27 11:49:08;;;;;;;2.25;0.70;;;23.30;64.50;;;;;;5006274;28;20090;-82
2022/06/27 11:51:41;;;;;;;1.88;0.70;;;23.20;65.00;;;;;;4993730;28;20050;-82
2022/06/27 11:54:11;;;;;;;2.50;0.68;;;23.20;65.10;;;;;;5008002;28;20039;-83
2022/06/27 11:56:44;;;;;;;2.17;0.70;;;23.20;65.10;;;;;;5008841;28;20046;-81
2022/06/27 11:59:13;;;;;;;2.05;0.98;;;23.10;64.90;;;;;;5002493;28;20046;-79
2022/06/27 12:01:55;;;;;;;1.67;0.80;;;23.00;64.90;;;;;;4999458;28;20041;-81
2022/06/27 12:04:33;;;;;;;2.30;0.70;;;23.00;64.80;;;;;;5010996;28;20053;-81
2022/06/27 12:07:04;;;;;;;1.73;0.50;;;23.00;64.80;;;;;;4989290;28;20133;-81
2022/06/27 12:09:31;;;;;;;1.05;0.60;;;23.10;65.00;;;;;;4988371;28;20046;-81
2022/06/27 12:12:03;;;;;;;1.65;0.50;;;23.10;65.00;;;;;;4990846;28;20129;-81
2022/06/27 12:14:43;;;;;;;1.73;0.60;;;23.20;65.10;;;;;;5004661;28;20042;-81
2022/06/27 12:17:10;;;;;;;1.10;0.57;;;23.20;64.90;;;;;;4988407;28;20050;-81
2022/06/27 12:19:40;;;;;;;1.13;0.47;;;23.30;64.90;;;;;;4969392;28;20117;-81
2022/06/27 12:22:20;;;;;;;1.50;0.77;;;23.50;64.40;;;;;;4985093;28;20140;-81
2022/06/27 12:25:08;;;;;;;2.65;0.75;;;23.90;64.00;;;;;;4983119;28;20034;-81
2022/06/27 12:27:35;;;;;;;0.98;0.55;;;24.10;63.40;;;;;;4963151;28;20385;-81
2022/06/27 12:30:02;;;;;;;1.83;0.63;;;24.30;62.90;;;;;;4988319;28;20042;-79
2022/06/27 12:32:29;;;;;;;1.80;0.68;;;24.40;62.80;;;;;;4973602;28;20046;-79
2022/06/27 12:34:56;;;;;;;1.95;0.85;;;24.40;62.50;;;;;;4996645;28;20153;-80
2022/06/27 12:37:23;;;;;;;1.75;0.77;;;24.30;62.40;;;;;;4987003;28;20661;-80
2022/06/27 12:39:50;;;;;;;1.10;0.57;;;24.30;62.60;;;;;;4990706;28;20094;-79
2022/06/27 12:42:17;;;;;;;2.47;0.60;;;24.40;62.70;;;;;;4976699;28;20050;-80
2022/06/27 12:44:44;;;;;;;1.58;0.50;;;24.40;62.70;;;;;;4999102;28;20041;-79
2022/06/27 12:47:11;;;;;;;2.38;0.70;;;24.50;62.80;;;;;;4976547;28;20043;-79
2022/06/27 12:49:39;;;;;;;2.05;0.80;;;24.60;62.40;;;;;;4991870;28;20392;-81
2022/06/27 12:52:06;;;;;;;1.75;0.70;;;24.50;61.60;;;;;;4986889;28;20093;-81
2022/06/27 12:54:33;;;;;;;2.03;0.93;;;24.40;62.20;;;;;;4972396;28;20476;-80
2022/06/27 12:57:01;;;;;;;1.20;0.60;;;24.20;62.50;;;;;;4996958;28;20030;-80
2022/06/27 12:59:29;;;;;;;2.83;0.90;;;24.10;62.90;;;;;;4994378;28;20153;-81
2022/06/27 13:01:57;;;;;;;2.10;0.70;;;23.90;62.80;;;;;;4997475;28;20042;-77
2022/06/27 13:04:24;;;;;;;2.38;0.90;;;23.70;62.50;;;;;;4993454;28;20541;-74
2022/06/27 13:06:51;;;;;;;1.60;0.60;;;23.60;62.90;;;;;;4973558;28;20688;-78
2022/06/27 13:09:22;;;;;;;2.13;0.77;;;23.50;63.30;;;;;;4996975;28;20915;-78
2022/06/27 13:11:54;;;;;;;2.28;0.68;;;23.40;63.20;;;;;;4991750;28;20380;-78
2022/06/27 13:14:27;;;;;;;1.67;0.70;;;23.40;63.30;;;;;;4989803;28;20081;-78
2022/06/27 13:16:56;;;;;;;1.50;0.45;;;23.30;63.40;;;;;;4976990;28;20050;-79